Time,TemperatureF,DewpointF,PressureIn,WindDirection,WindDirectionDegrees,WindSpeedMPH,WindSpeedGustMPH,Humidity,HourlyPrecipIn,Conditions,Clouds,dailyrainin,SoftwareType,DateUTC
2013-09-19 00:03:00,79.2,59.0,28.41,SE,135,6.0,6.0,50,0.00,,,0.00,meteohub,2013-09-19 05:03:00,
2013-09-19 00:08:00,79.0,58.8,28.40,NE,45,1.0,6.0,50,0.00,,,0.00,meteohub,2013-09-19 05:08:00,
2013-09-19 00:13:00,78.8,58.6,28.41,NE,45,2.0,7.0,50,0.00,,,0.00,meteohub,2013-09-19 05:13:00,
2013-09-19 00:18:00,78.4,58.3,28.41,South,180,10.0,10.0,50,0.00,,,0.00,meteohub,2013-09-19 05:18:00,
2013-09-19 00:23:00,78.4,58.8,28.41,SE,135,1.0,7.0,51,0.00,,,0.00,meteohub,2013-09-19 05:23:00,
2013-09-19 00:28:00,78.1,59.0,28.40,East,90,1.0,10.0,52,0.00,,,0.00,meteohub,2013-09-19 05:28:00,
2013-09-19 00:33:00,77.7,58.6,28.41,SE,135,7.0,10.0,52,0.00,,,0.00,meteohub,2013-09-19 05:33:00,
2013-09-19 00:38:00,77.5,59.0,28.41,East,90,2.0,4.0,53,0.00,,,0.00,meteohub,2013-09-19 05:38:00,
2013-09-19 00:43:00,77.5,59.0,28.40,SE,135,6.0,7.0,53,0.00,,,0.00,meteohub,2013-09-19 05:43:00,
2013-09-19 00:48:00,77.4,59.4,28.40,East,90,2.0,7.0,54,0.00,,,0.00,meteohub,2013-09-19 05:48:00,
2013-09-19 00:53:00,77.4,59.4,28.40,East,90,2.0,8.0,54,0.00,,,0.00,meteohub,2013-09-19 05:53:00,
2013-09-19 00:58:00,77.4,59.4,28.40,SW,225,5.0,8.0,54,0.00,,,0.00,meteohub,2013-09-19 05:58:00,
2013-09-19 01:03:00,77.4,59.4,28.40,East,90,4.0,8.0,54,0.00,,,0.00,meteohub,2013-09-19 06:03:00,
2013-09-19 01:08:00,77.4,59.4,28.40,South,180,1.0,8.0,54,0.00,,,0.00,meteohub,2013-09-19 06:08:00,
2013-09-19 01:13:00,77.0,59.0,28.40,SE,135,4.0,8.0,54,0.00,,,0.00,meteohub,2013-09-19 06:13:00,
2013-09-19 01:18:00,77.2,59.2,28.40,East,90,8.0,8.0,54,0.00,,,0.00,meteohub,2013-09-19 06:18:00,
2013-09-19 01:23:00,77.2,59.2,28.40,South,180,5.0,8.0,54,0.00,,,0.00,meteohub,2013-09-19 06:23:00,
2013-09-19 01:28:00,77.4,59.4,28.40,East,90,4.0,8.0,54,0.00,,,0.00,meteohub,2013-09-19 06:28:00,
2013-09-19 01:33:00,77.2,59.2,28.40,East,90,1.0,8.0,54,0.00,,,0.00,meteohub,2013-09-19 06:33:00,
2013-09-19 01:38:00,77.0,59.5,28.40,East,90,2.0,5.0,55,0.00,,,0.00,meteohub,2013-09-19 06:38:00,
2013-09-19 01:43:00,77.0,59.5,28.40,SE,135,1.0,6.0,55,0.00,,,0.00,meteohub,2013-09-19 06:43:00,
2013-09-19 01:48:00,76.6,59.7,28.40,East,90,1.0,6.0,56,0.00,,,0.00,meteohub,2013-09-19 06:48:00,
2013-09-19 01:53:00,76.6,59.7,28.40,ESE,113,2.0,4.0,56,0.00,,,0.00,meteohub,2013-09-19 06:53:00,
2013-09-19 01:58:00,76.6,59.7,28.40,South,180,3.0,4.0,56,0.00,,,0.00,meteohub,2013-09-19 06:58:00,
2013-09-19 02:03:00,76.5,59.5,28.40,SE,135,1.0,5.0,56,0.00,,,0.00,meteohub,2013-09-19 07:03:00,
2013-09-19 02:08:00,76.3,59.4,28.40,East,90,1.0,5.0,56,0.00,,,0.00,meteohub,2013-09-19 07:08:00,
2013-09-19 02:13:00,76.1,59.7,28.40,NW,315,4.0,8.0,57,0.00,,,0.00,meteohub,2013-09-19 07:13:00,
2013-09-19 02:18:00,75.9,60.1,28.40,NE,45,1.0,8.0,58,0.00,,,0.00,meteohub,2013-09-19 07:18:00,
2013-09-19 02:23:00,75.7,59.9,28.40,SW,225,1.0,8.0,58,0.00,,,0.00,meteohub,2013-09-19 07:23:00,
2013-09-19 02:28:00,75.6,60.3,28.40,SE,135,1.0,4.0,59,0.00,,,0.00,meteohub,2013-09-19 07:28:00,
2013-09-19 02:33:00,75.6,60.3,28.40,East,90,0.0,3.0,59,0.00,,,0.00,meteohub,2013-09-19 07:33:00,
2013-09-19 02:38:00,75.2,60.4,28.40,East,90,1.0,3.0,60,0.00,,,0.00,meteohub,2013-09-19 07:38:00,
2013-09-19 02:44:00,74.8,60.1,28.40,SE,135,1.0,3.0,60,0.00,,,0.00,meteohub,2013-09-19 07:44:00,
2013-09-19 02:49:00,75.0,60.3,28.41,East,90,1.0,1.0,60,0.00,,,0.00,meteohub,2013-09-19 07:49:00,
2013-09-19 02:54:00,74.7,60.3,28.40,NE,45,1.0,2.0,61,0.00,,,0.00,meteohub,2013-09-19 07:54:00,
2013-09-19 02:59:00,74.3,59.9,28.41,East,90,1.0,4.0,61,0.00,,,0.00,meteohub,2013-09-19 07:59:00,
2013-09-19 03:04:00,74.5,60.1,28.40,East,90,1.0,4.0,61,0.00,,,0.00,meteohub,2013-09-19 08:04:00,
2013-09-19 03:09:00,74.3,60.4,28.40,SE,135,1.0,4.0,62,0.00,,,0.00,meteohub,2013-09-19 08:09:00,
2013-09-19 03:14:00,74.1,60.3,28.40,East,90,1.0,1.0,62,0.00,,,0.00,meteohub,2013-09-19 08:14:00,
2013-09-19 03:19:00,74.3,60.4,28.40,East,90,1.0,1.0,62,0.00,,,0.00,meteohub,2013-09-19 08:19:00,
2013-09-19 03:24:00,74.1,60.8,28.40,SE,135,1.0,1.0,63,0.00,,,0.00,meteohub,2013-09-19 08:24:00,
2013-09-19 03:29:00,73.9,61.0,28.40,East,90,1.0,1.0,64,0.00,,,0.00,meteohub,2013-09-19 08:29:00,
2013-09-19 03:34:00,74.3,61.3,28.40,SE,135,1.0,1.0,64,0.00,,,0.00,meteohub,2013-09-19 08:34:00,
2013-09-19 03:39:00,74.3,60.8,28.40,East,90,1.0,1.0,63,0.00,,,0.00,meteohub,2013-09-19 08:39:00,
2013-09-19 03:44:00,74.3,60.8,28.40,SE,135,1.0,1.0,63,0.00,,,0.00,meteohub,2013-09-19 08:44:00,
2013-09-19 03:49:00,74.1,61.2,28.40,East,90,0.0,1.0,64,0.00,,,0.00,meteohub,2013-09-19 08:49:00,
2013-09-19 03:54:00,73.9,61.0,28.40,SE,135,1.0,1.0,64,0.00,,,0.00,meteohub,2013-09-19 08:54:00,
2013-09-19 03:59:00,73.6,61.2,28.40,North,0,1.0,1.0,65,0.00,,,0.00,meteohub,2013-09-19 08:59:00,
2013-09-19 04:04:00,73.4,61.0,28.40,East,90,1.0,1.0,65,0.00,,,0.00,meteohub,2013-09-19 09:04:00,
2013-09-19 04:09:00,73.4,61.3,28.40,SE,135,1.0,1.0,66,0.00,,,0.00,meteohub,2013-09-19 09:09:00,
2013-09-19 04:14:00,73.2,61.5,28.40,SSE,158,1.0,1.0,67,0.00,,,0.00,meteohub,2013-09-19 09:14:00,
2013-09-19 04:19:00,73.4,61.7,28.41,East,90,1.0,1.0,67,0.00,,,0.00,meteohub,2013-09-19 09:19:00,
2013-09-19 04:24:00,73.6,61.5,28.41,East,90,1.0,2.0,66,0.00,,,0.00,meteohub,2013-09-19 09:24:00,
2013-09-19 04:29:00,73.6,61.5,28.40,East,90,1.0,2.0,66,0.00,,,0.00,meteohub,2013-09-19 09:29:00,
2013-09-19 04:34:00,73.4,61.3,28.41,SE,135,1.0,1.0,66,0.00,,,0.00,meteohub,2013-09-19 09:34:00,
2013-09-19 04:40:00,73.2,61.5,28.41,South,180,1.0,1.0,67,0.00,,,0.00,meteohub,2013-09-19 09:40:00,
2013-09-19 04:45:00,72.9,61.7,28.41,East,90,1.0,1.0,68,0.00,,,0.00,meteohub,2013-09-19 09:45:00,
2013-09-19 04:50:00,72.7,61.5,28.41,East,90,1.0,1.0,68,0.00,,,0.00,meteohub,2013-09-19 09:50:00,
2013-09-19 04:55:00,72.9,61.7,28.41,East,90,1.0,1.0,68,0.00,,,0.00,meteohub,2013-09-19 09:55:00,
2013-09-19 05:00:00,72.7,61.9,28.41,SE,135,1.0,1.0,69,0.00,,,0.00,meteohub,2013-09-19 10:00:00,
2013-09-19 05:05:00,72.9,62.1,28.41,SE,135,1.0,1.0,69,0.00,,,0.00,meteohub,2013-09-19 10:05:00,
2013-09-19 05:10:00,72.7,61.9,28.41,East,90,1.0,2.0,69,0.00,,,0.00,meteohub,2013-09-19 10:10:00,
2013-09-19 05:15:00,72.7,61.9,28.41,SE,135,1.0,2.0,69,0.00,,,0.00,meteohub,2013-09-19 10:15:00,
2013-09-19 05:20:00,72.3,61.5,28.41,SE,135,1.0,1.0,69,0.00,,,0.00,meteohub,2013-09-19 10:20:00,
2013-09-19 05:25:00,72.5,62.2,28.41,East,90,1.0,1.0,70,0.00,,,0.00,meteohub,2013-09-19 10:25:00,
2013-09-19 05:30:00,71.8,61.5,28.41,East,90,1.0,1.0,70,0.00,,,0.00,meteohub,2013-09-19 10:30:00,
2013-09-19 05:35:00,72.0,62.1,28.41,East,90,1.0,1.0,71,0.00,,,0.00,meteohub,2013-09-19 10:35:00,
2013-09-19 05:40:00,71.8,61.9,28.41,East,90,1.0,1.0,71,0.00,,,0.00,meteohub,2013-09-19 10:40:00,
2013-09-19 05:45:00,71.8,62.2,28.41,SE,135,0.0,1.0,72,0.00,,,0.00,meteohub,2013-09-19 10:45:00,
2013-09-19 05:50:00,71.4,61.9,28.41,South,180,1.0,1.0,72,0.00,,,0.00,meteohub,2013-09-19 10:50:00,
2013-09-19 05:55:00,71.6,62.1,28.41,SE,135,0.0,1.0,72,0.00,,,0.00,meteohub,2013-09-19 10:55:00,
2013-09-19 06:00:00,71.6,62.1,28.41,East,90,1.0,1.0,72,0.00,,,0.00,meteohub,2013-09-19 11:00:00,
2013-09-19 06:05:00,71.8,62.2,28.42,SE,135,1.0,1.0,72,0.00,,,0.00,meteohub,2013-09-19 11:05:00,
2013-09-19 06:10:00,71.6,62.1,28.42,SE,135,1.0,1.0,72,0.00,,,0.00,meteohub,2013-09-19 11:10:00,
2013-09-19 06:15:00,71.8,62.6,28.42,East,90,0.0,1.0,73,0.00,,,0.00,meteohub,2013-09-19 11:15:00,
2013-09-19 06:20:00,71.4,62.2,28.42,East,90,2.0,2.0,73,0.00,,,0.00,meteohub,2013-09-19 11:20:00,
2013-09-19 06:25:00,71.2,62.1,28.42,East,90,1.0,1.0,73,0.00,,,0.00,meteohub,2013-09-19 11:25:00,
2013-09-19 06:30:00,71.4,62.2,28.42,East,90,1.0,2.0,73,0.00,,,0.00,meteohub,2013-09-19 11:30:00,
2013-09-19 06:35:00,71.8,62.6,28.42,East,90,1.0,2.0,73,0.00,,,0.00,meteohub,2013-09-19 11:35:00,
2013-09-19 06:40:00,71.8,62.6,28.42,East,90,0.0,1.0,73,0.00,,,0.00,meteohub,2013-09-19 11:40:00,
2013-09-19 06:45:00,71.4,62.2,28.42,East,90,1.0,1.0,73,0.00,,,0.00,meteohub,2013-09-19 11:45:00,
2013-09-19 06:50:00,71.4,62.2,28.43,SE,135,1.0,1.0,73,0.00,,,0.00,meteohub,2013-09-19 11:50:00,
2013-09-19 06:55:00,71.4,62.8,28.43,South,180,1.0,1.0,74,0.00,,,0.00,meteohub,2013-09-19 11:55:00,
2013-09-19 07:01:00,71.2,62.6,28.43,East,90,2.0,2.0,74,0.00,,,0.00,meteohub,2013-09-19 12:01:00,
2013-09-19 07:06:00,71.2,62.6,28.43,East,90,1.0,2.0,74,0.00,,,0.00,meteohub,2013-09-19 12:06:00,
2013-09-19 07:11:00,71.1,62.8,28.43,NE,45,1.0,2.0,75,0.00,,,0.00,meteohub,2013-09-19 12:11:00,
2013-09-19 07:16:00,71.1,63.1,28.43,East,90,1.0,2.0,76,0.00,,,0.00,meteohub,2013-09-19 12:16:00,
2013-09-19 07:21:00,71.2,63.3,28.44,East,90,1.0,1.0,76,0.00,,,0.00,meteohub,2013-09-19 12:21:00,
2013-09-19 07:26:00,71.4,63.5,28.44,SE,135,1.0,3.0,76,0.00,,,0.00,meteohub,2013-09-19 12:26:00,
2013-09-19 07:31:00,71.6,63.3,28.44,SE,135,1.0,3.0,75,0.00,,,0.00,meteohub,2013-09-19 12:31:00,
2013-09-19 07:36:00,71.8,63.5,28.43,East,90,1.0,3.0,75,0.00,,,0.00,meteohub,2013-09-19 12:36:00,
2013-09-19 07:41:00,71.6,63.3,28.44,East,90,2.0,2.0,75,0.00,,,0.00,meteohub,2013-09-19 12:41:00,
2013-09-19 07:46:00,71.6,63.3,28.44,East,90,0.0,4.0,75,0.00,,,0.00,meteohub,2013-09-19 12:46:00,
2013-09-19 07:51:00,72.0,64.0,28.44,East,90,1.0,4.0,76,0.00,,,0.00,meteohub,2013-09-19 12:51:00,
2013-09-19 07:56:00,72.1,63.9,28.45,East,90,3.0,4.0,75,0.00,,,0.00,meteohub,2013-09-19 12:56:00,
2013-09-19 08:01:00,72.9,64.4,28.44,SSE,158,2.0,3.0,75,0.00,,,0.00,meteohub,2013-09-19 13:01:00,
2013-09-19 08:06:00,73.2,64.4,28.44,East,90,2.0,3.0,74,0.00,,,0.00,meteohub,2013-09-19 13:06:00,
2013-09-19 08:11:00,73.8,64.6,28.45,East,90,3.0,3.0,73,0.00,,,0.00,meteohub,2013-09-19 13:11:00,
2013-09-19 08:16:00,74.5,65.3,28.45,East,90,1.0,4.0,73,0.00,,,0.00,meteohub,2013-09-19 13:16:00,
2013-09-19 08:21:00,74.7,65.5,28.45,East,90,2.0,4.0,73,0.00,,,0.00,meteohub,2013-09-19 13:21:00,
2013-09-19 08:26:00,75.4,65.7,28.45,East,90,1.0,4.0,72,0.00,,,0.00,meteohub,2013-09-19 13:26:00,
2013-09-19 08:31:00,76.1,65.7,28.45,SW,225,4.0,4.0,70,0.00,,,0.00,meteohub,2013-09-19 13:31:00,
2013-09-19 08:36:00,76.5,65.5,28.45,SE,135,2.0,5.0,69,0.00,,,0.00,meteohub,2013-09-19 13:36:00,
2013-09-19 08:41:00,77.0,66.0,28.45,SE,135,3.0,5.0,69,0.00,,,0.00,meteohub,2013-09-19 13:41:00,
2013-09-19 08:46:00,77.2,66.2,28.45,South,180,2.0,5.0,69,0.00,,,0.00,meteohub,2013-09-19 13:46:00,
2013-09-19 08:51:00,77.9,66.6,28.45,East,90,3.0,4.0,68,0.00,,,0.00,meteohub,2013-09-19 13:51:00,
2013-09-19 08:56:00,79.0,66.6,28.45,South,180,8.0,8.0,66,0.00,,,0.00,meteohub,2013-09-19 13:56:00,
2013-09-19 09:01:00,79.5,66.7,28.45,West,270,7.0,8.0,65,0.00,,,0.00,meteohub,2013-09-19 14:01:00,
2013-09-19 09:06:00,79.9,66.6,28.45,East,90,2.0,8.0,64,0.00,,,0.00,meteohub,2013-09-19 14:06:00,
2013-09-19 09:11:00,80.4,66.7,28.46,South,180,4.0,8.0,63,0.00,,,0.00,meteohub,2013-09-19 14:11:00,
2013-09-19 09:16:00,81.3,67.1,28.46,South,180,5.0,8.0,62,0.00,,,0.00,meteohub,2013-09-19 14:16:00,
2013-09-19 09:21:00,81.5,66.2,28.45,SSE,158,8.0,8.0,60,0.00,,,0.00,meteohub,2013-09-19 14:21:00,
2013-09-19 09:26:00,81.9,66.6,28.46,SE,135,10.0,11.0,60,0.00,,,0.00,meteohub,2013-09-19 14:26:00,
2013-09-19 09:31:00,82.2,66.4,28.46,South,180,9.0,14.0,59,0.00,,,0.00,meteohub,2013-09-19 14:31:00,
2013-09-19 09:36:00,82.4,66.6,28.46,SW,225,12.0,14.0,59,0.00,,,0.00,meteohub,2013-09-19 14:36:00,
2013-09-19 09:41:00,82.0,66.7,28.46,South,180,10.0,14.0,60,0.00,,,0.00,meteohub,2013-09-19 14:41:00,
2013-09-19 09:47:00,81.9,67.1,28.46,South,180,7.0,12.0,61,0.00,,,0.00,meteohub,2013-09-19 14:47:00,
2013-09-19 09:52:00,82.0,66.7,28.47,West,270,11.0,12.0,60,0.00,,,0.00,meteohub,2013-09-19 14:52:00,
2013-09-19 09:57:00,81.3,66.6,28.47,SSE,158,11.0,12.0,61,0.00,,,0.00,meteohub,2013-09-19 14:57:00,
2013-09-19 10:02:00,81.5,67.3,28.47,SW,225,8.0,14.0,62,0.00,,,0.00,meteohub,2013-09-19 15:02:00,
2013-09-19 10:07:00,81.7,67.5,28.47,SSW,203,11.0,14.0,62,0.00,,,0.00,meteohub,2013-09-19 15:07:00,
2013-09-19 10:12:00,81.9,67.6,28.47,South,180,6.0,14.0,62,0.00,,,0.00,meteohub,2013-09-19 15:12:00,
2013-09-19 10:17:00,82.2,67.5,28.48,South,180,8.0,12.0,61,0.00,,,0.00,meteohub,2013-09-19 15:17:00,
2013-09-19 10:22:00,81.9,67.6,28.48,South,180,11.0,12.0,62,0.00,,,0.00,meteohub,2013-09-19 15:22:00,
2013-09-19 10:27:00,81.7,67.5,28.48,West,270,8.0,12.0,62,0.00,,,0.00,meteohub,2013-09-19 15:27:00,
2013-09-19 10:32:00,81.7,67.8,28.48,South,180,10.0,11.0,63,0.00,,,0.00,meteohub,2013-09-19 15:32:00,
2013-09-19 10:37:00,81.5,67.3,28.48,South,180,10.0,11.0,62,0.00,,,0.00,meteohub,2013-09-19 15:37:00,
2013-09-19 10:42:00,81.7,67.8,28.48,South,180,8.0,12.0,63,0.00,,,0.00,meteohub,2013-09-19 15:42:00,
2013-09-19 10:47:00,82.0,67.6,28.48,South,180,7.0,12.0,62,0.00,,,0.00,meteohub,2013-09-19 15:47:00,
2013-09-19 10:52:00,82.4,68.0,28.48,South,180,6.0,12.0,62,0.00,,,0.00,meteohub,2013-09-19 15:52:00,
2013-09-19 10:57:00,83.1,68.7,28.48,South,180,9.0,11.0,62,0.00,,,0.00,meteohub,2013-09-19 15:57:00,
2013-09-19 11:02:00,83.7,68.4,28.48,South,180,12.0,12.0,60,0.00,,,0.00,meteohub,2013-09-19 16:02:00,
2013-09-19 11:07:00,83.8,68.5,28.48,North,0,7.0,15.0,60,0.00,,,0.00,meteohub,2013-09-19 16:07:00,
2013-09-19 11:12:00,84.0,68.2,28.48,SW,225,11.0,15.0,59,0.00,,,0.00,meteohub,2013-09-19 16:12:00,
2013-09-19 11:17:00,84.2,68.7,28.48,South,180,8.0,15.0,60,0.00,,,0.00,meteohub,2013-09-19 16:17:00,
2013-09-19 11:22:00,84.4,68.5,28.48,South,180,11.0,12.0,59,0.00,,,0.00,meteohub,2013-09-19 16:22:00,
2013-09-19 11:27:00,84.7,69.3,28.48,SW,225,5.0,11.0,60,0.00,,,0.00,meteohub,2013-09-19 16:27:00,
2013-09-19 11:32:00,84.7,67.8,28.48,West,270,8.0,11.0,57,0.00,,,0.00,meteohub,2013-09-19 16:32:00,
2013-09-19 11:37:00,85.1,68.2,28.48,South,180,13.0,13.0,57,0.00,,,0.00,meteohub,2013-09-19 16:37:00,
2013-09-19 11:42:00,85.6,68.2,28.47,NW,315,8.0,13.0,56,0.00,,,0.00,meteohub,2013-09-19 16:42:00,
2013-09-19 11:47:00,87.1,67.3,28.48,South,180,6.0,13.0,52,0.00,,,0.00,meteohub,2013-09-19 16:47:00,
2013-09-19 11:52:00,87.4,67.6,28.48,South,180,6.0,15.0,52,0.00,,,0.00,meteohub,2013-09-19 16:52:00,
2013-09-19 11:57:00,87.6,65.5,28.47,SW,225,11.0,15.0,48,0.00,,,0.00,meteohub,2013-09-19 16:57:00,
2013-09-19 12:02:00,86.9,66.0,28.47,South,180,8.0,15.0,50,0.00,,,0.00,meteohub,2013-09-19 17:02:00,
2013-09-19 12:07:00,86.5,65.7,28.47,South,180,9.0,13.0,50,0.00,,,0.00,meteohub,2013-09-19 17:07:00,
2013-09-19 12:12:00,86.2,65.3,28.47,South,180,9.0,15.0,50,0.00,,,0.00,meteohub,2013-09-19 17:12:00,
2013-09-19 12:17:00,86.5,65.7,28.47,South,180,10.0,15.0,50,0.00,,,0.00,meteohub,2013-09-19 17:17:00,
2013-09-19 12:22:00,87.1,65.7,28.47,South,180,12.0,15.0,49,0.00,,,0.00,meteohub,2013-09-19 17:22:00,
2013-09-19 12:27:00,86.7,65.3,28.47,South,180,8.0,17.0,49,0.00,,,0.00,meteohub,2013-09-19 17:27:00,
2013-09-19 12:32:00,86.5,65.7,28.47,SW,225,5.0,17.0,50,0.00,,,0.00,meteohub,2013-09-19 17:32:00,
2013-09-19 12:37:00,86.2,65.3,28.47,East,90,12.0,17.0,50,0.00,,,0.00,meteohub,2013-09-19 17:37:00,
2013-09-19 12:42:00,86.2,65.8,28.47,North,0,6.0,15.0,51,0.00,,,0.00,meteohub,2013-09-19 17:42:00,
2013-09-19 12:47:00,85.6,67.1,28.47,NW,315,10.0,15.0,54,0.00,,,0.00,meteohub,2013-09-19 17:47:00,
2013-09-19 12:52:00,84.7,66.7,28.48,East,90,6.0,15.0,55,0.00,,,0.00,meteohub,2013-09-19 17:52:00,
2013-09-19 12:57:00,83.8,66.4,28.48,South,180,9.0,15.0,56,0.00,,,0.00,meteohub,2013-09-19 17:57:00,
2013-09-19 13:02:00,83.3,66.0,28.48,East,90,5.0,15.0,56,0.00,,,0.00,meteohub,2013-09-19 18:02:00,
2013-09-19 13:07:00,83.1,66.4,28.48,East,90,4.0,13.0,57,0.00,,,0.00,meteohub,2013-09-19 18:07:00,
2013-09-19 13:12:00,82.2,66.4,28.48,SE,135,7.0,13.0,59,0.00,,,0.00,meteohub,2013-09-19 18:12:00,
2013-09-19 13:17:00,81.7,66.9,28.48,SW,225,8.0,14.0,61,0.00,,,0.00,meteohub,2013-09-19 18:17:00,
2013-09-19 13:22:00,81.3,68.0,28.48,East,90,11.0,14.0,64,0.00,,,0.00,meteohub,2013-09-19 18:22:00,
2013-09-19 13:27:00,80.8,68.0,28.48,South,180,11.0,14.0,65,0.00,,,0.00,meteohub,2013-09-19 18:27:00,
2013-09-19 13:32:00,81.0,68.5,28.47,South,180,8.0,14.0,66,0.00,,,0.00,meteohub,2013-09-19 18:32:00,
2013-09-19 13:37:00,80.8,69.6,28.47,SE,135,7.0,14.0,69,0.00,,,0.00,meteohub,2013-09-19 18:37:00,
2013-09-19 13:42:00,80.4,69.8,28.47,NE,45,4.0,13.0,70,0.00,,,0.00,meteohub,2013-09-19 18:42:00,
2013-09-19 13:47:00,79.9,70.0,28.47,SSE,158,8.0,13.0,72,0.00,,,0.00,meteohub,2013-09-19 18:47:00,
2013-09-19 13:52:00,79.0,69.3,28.47,East,90,12.0,14.0,72,0.00,,,0.00,meteohub,2013-09-19 18:52:00,
2013-09-19 13:57:00,79.0,68.0,28.47,South,180,11.0,14.0,69,0.00,,,0.00,meteohub,2013-09-19 18:57:00,
2013-09-19 14:02:00,78.6,68.4,28.47,South,180,8.0,14.0,71,0.00,,,0.00,meteohub,2013-09-19 19:02:00,
2013-09-19 14:07:00,78.3,69.3,28.47,South,180,4.0,12.0,74,0.00,,,0.00,meteohub,2013-09-19 19:07:00,
2013-09-19 14:12:00,78.3,70.0,28.47,SW,225,7.0,11.0,76,0.00,,,0.00,meteohub,2013-09-19 19:12:00,
2013-09-19 14:17:00,78.4,71.1,28.46,SE,135,5.0,8.0,78,0.00,,,0.00,meteohub,2013-09-19 19:17:00,
2013-09-19 14:22:00,78.3,70.9,28.47,South,180,9.0,11.0,78,0.00,,,0.00,meteohub,2013-09-19 19:22:00,
2013-09-19 14:27:00,78.8,71.1,28.46,SW,225,7.0,11.0,77,0.00,,,0.00,meteohub,2013-09-19 19:27:00,
2013-09-19 14:32:00,79.3,70.0,28.45,South,180,6.0,10.0,73,0.00,,,0.00,meteohub,2013-09-19 19:32:00,
2013-09-19 14:37:00,79.7,69.8,28.45,West,270,11.0,11.0,72,0.00,,,0.00,meteohub,2013-09-19 19:37:00,
2013-09-19 14:42:00,80.1,68.5,28.46,South,180,7.0,11.0,68,0.00,,,0.00,meteohub,2013-09-19 19:42:00,
2013-09-19 14:47:00,79.9,68.0,28.46,South,180,15.0,15.0,67,0.00,,,0.00,meteohub,2013-09-19 19:47:00,
2013-09-19 14:52:00,79.9,68.4,28.45,South,180,15.0,15.0,68,0.00,,,0.00,meteohub,2013-09-19 19:52:00,
2013-09-19 14:58:00,79.9,68.7,28.45,SE,135,12.0,15.0,69,0.00,,,0.00,meteohub,2013-09-19 19:58:00,
2013-09-19 15:03:00,79.3,68.4,28.45,South,180,11.0,15.0,69,0.00,,,0.00,meteohub,2013-09-19 20:03:00,
2013-09-19 15:08:00,79.3,67.8,28.45,South,180,14.0,15.0,68,0.00,,,0.00,meteohub,2013-09-19 20:08:00,
2013-09-19 15:13:00,78.8,67.8,28.45,SE,135,16.0,16.0,69,0.00,,,0.00,meteohub,2013-09-19 20:13:00,
2013-09-19 15:18:00,78.4,68.7,28.45,South,180,13.0,16.0,72,0.00,,,0.00,meteohub,2013-09-19 20:18:00,
2013-09-19 15:23:00,77.7,68.7,28.45,SW,225,10.0,16.0,74,0.00,,,0.00,meteohub,2013-09-19 20:23:00,
2013-09-19 15:28:00,77.4,69.3,28.45,South,180,14.0,16.0,76,0.00,,,0.00,meteohub,2013-09-19 20:28:00,
2013-09-19 15:33:00,77.0,69.3,28.45,South,180,11.0,16.0,77,0.00,,,0.00,meteohub,2013-09-19 20:33:00,
2013-09-19 15:38:00,76.8,70.2,28.45,South,180,10.0,16.0,80,0.00,,,0.00,meteohub,2013-09-19 20:38:00,
2013-09-19 15:43:00,76.8,69.4,28.45,East,90,11.0,16.0,78,0.00,,,0.00,meteohub,2013-09-19 20:43:00,
2013-09-19 15:48:00,77.0,68.5,28.45,SW,225,8.0,15.0,75,0.00,,,0.00,meteohub,2013-09-19 20:48:00,
2013-09-19 15:53:00,77.0,66.9,28.45,SSE,158,11.0,17.0,71,0.00,,,0.00,meteohub,2013-09-19 20:53:00,
2013-09-19 15:58:00,77.0,67.3,28.45,SSE,158,9.0,17.0,72,0.00,,,0.00,meteohub,2013-09-19 20:58:00,
2013-09-19 16:03:00,77.2,67.8,28.45,SSE,158,13.0,17.0,73,0.00,,,0.00,meteohub,2013-09-19 21:03:00,
2013-09-19 16:08:00,77.0,68.0,28.44,SE,135,11.0,16.0,74,0.00,,,0.00,meteohub,2013-09-19 21:08:00,
2013-09-19 16:13:00,77.0,68.5,28.44,South,180,11.0,15.0,75,0.00,,,0.00,meteohub,2013-09-19 21:13:00,
2013-09-19 16:18:00,77.0,68.9,28.44,South,180,10.0,15.0,76,0.00,,,0.00,meteohub,2013-09-19 21:18:00,
2013-09-19 16:23:00,76.8,68.4,28.44,South,180,15.0,15.0,75,0.00,,,0.00,meteohub,2013-09-19 21:23:00,
2013-09-19 16:28:00,77.0,68.0,28.44,SE,135,11.0,16.0,74,0.00,,,0.00,meteohub,2013-09-19 21:28:00,
2013-09-19 16:33:00,77.2,68.2,28.43,South,180,9.0,16.0,74,0.00,,,0.00,meteohub,2013-09-19 21:33:00,
2013-09-19 16:38:00,77.2,67.8,28.43,SE,135,4.0,15.0,73,0.00,,,0.00,meteohub,2013-09-19 21:38:00,
2013-09-19 16:43:00,77.4,67.3,28.43,South,180,7.0,15.0,71,0.00,,,0.00,meteohub,2013-09-19 21:43:00,
2013-09-19 16:48:00,77.4,67.6,28.43,East,90,8.0,11.0,72,0.00,,,0.00,meteohub,2013-09-19 21:48:00,
2013-09-19 16:53:00,77.4,67.3,28.43,South,180,11.0,12.0,71,0.00,,,0.00,meteohub,2013-09-19 21:53:00,
2013-09-19 16:58:00,77.0,67.6,28.43,South,180,7.0,12.0,73,0.00,,,0.00,meteohub,2013-09-19 21:58:00,
2013-09-19 17:03:00,77.0,67.6,28.43,SE,135,5.0,13.0,73,0.00,,,0.00,meteohub,2013-09-19 22:03:00,
2013-09-19 17:08:00,77.0,67.6,28.42,SE,135,6.0,13.0,73,0.00,,,0.00,meteohub,2013-09-19 22:08:00,
2013-09-19 17:13:00,77.0,67.6,28.42,South,180,9.0,13.0,73,0.00,,,0.00,meteohub,2013-09-19 22:13:00,
2013-09-19 17:18:00,76.6,68.2,28.41,South,180,6.0,10.0,75,0.00,,,0.00,meteohub,2013-09-19 22:18:00,
2013-09-19 17:23:00,76.3,68.2,28.41,East,90,4.0,10.0,76,0.00,,,0.00,meteohub,2013-09-19 22:23:00,
2013-09-19 17:29:00,76.5,68.7,28.40,SE,135,9.0,9.0,77,0.00,,,0.00,meteohub,2013-09-19 22:29:00,
2013-09-19 17:34:00,75.9,68.9,28.40,SE,135,8.0,8.0,79,0.00,,,0.00,meteohub,2013-09-19 22:34:00,
2013-09-19 17:39:00,75.9,68.9,28.40,East,90,10.0,10.0,79,0.00,,,0.00,meteohub,2013-09-19 22:39:00,
2013-09-19 17:44:00,76.1,69.1,28.39,South,180,12.0,13.0,79,0.00,,,0.00,meteohub,2013-09-19 22:44:00,
2013-09-19 17:49:00,76.1,69.1,28.38,East,90,10.0,13.0,79,0.00,,,0.00,meteohub,2013-09-19 22:49:00,
2013-09-19 17:54:00,76.1,69.1,28.38,NE,45,9.0,13.0,79,0.00,,,0.00,meteohub,2013-09-19 22:54:00,
2013-09-19 17:59:00,75.9,69.3,28.37,SE,135,5.0,12.0,80,0.00,,,0.00,meteohub,2013-09-19 22:59:00,
2013-09-19 18:05:00,75.6,70.0,28.37,SE,135,8.0,12.0,83,0.00,,,0.00,meteohub,2013-09-19 23:05:00,
2013-09-19 18:10:00,75.2,70.3,28.37,East,90,7.0,11.0,85,0.00,,,0.00,meteohub,2013-09-19 23:10:00,
2013-09-19 18:15:00,75.2,70.7,28.37,SSE,158,12.0,12.0,86,0.00,,,0.00,meteohub,2013-09-19 23:15:00,
2013-09-19 18:20:00,75.0,70.2,28.38,SW,225,7.0,11.0,85,0.00,,,0.00,meteohub,2013-09-19 23:20:00,
2013-09-19 18:25:00,75.4,70.2,28.39,SW,225,4.0,12.0,84,0.00,,,0.00,meteohub,2013-09-19 23:25:00,
2013-09-19 18:30:00,75.7,70.2,28.40,SW,225,5.0,12.0,83,0.00,,,0.00,meteohub,2013-09-19 23:30:00,
2013-09-19 18:35:00,76.3,70.7,28.41,West,270,5.0,10.0,83,0.00,,,0.00,meteohub,2013-09-19 23:35:00,
2013-09-19 18:40:00,76.1,70.2,28.42,SW,225,7.0,10.0,82,0.00,,,0.00,meteohub,2013-09-19 23:40:00,
2013-09-19 18:45:00,75.9,70.3,28.42,SW,225,4.0,8.0,83,0.00,,,0.00,meteohub,2013-09-19 23:45:00,
2013-09-19 18:50:00,75.7,68.7,28.42,SW,225,7.0,8.0,79,0.00,,,0.00,meteohub,2013-09-19 23:50:00,
2013-09-19 18:55:00,75.9,68.9,28.42,West,270,7.0,11.0,79,0.00,,,0.00,meteohub,2013-09-19 23:55:00,
2013-09-19 19:00:00,75.9,69.3,28.42,NW,315,9.0,11.0,80,0.00,,,0.00,meteohub,2013-09-20 00:00:00,
2013-09-19 19:05:00,75.9,69.3,28.42,SW,225,4.0,10.0,80,0.00,,,0.00,meteohub,2013-09-20 00:05:00,
2013-09-19 19:10:00,75.7,69.1,28.43,SW,225,5.0,10.0,80,0.00,,,0.00,meteohub,2013-09-20 00:10:00,
2013-09-19 19:15:00,75.6,69.3,28.43,South,180,3.0,9.0,81,0.00,,,0.00,meteohub,2013-09-20 00:15:00,
2013-09-19 19:20:00,75.2,68.9,28.43,SW,225,4.0,7.0,81,0.00,,,0.00,meteohub,2013-09-20 00:20:00,
2013-09-19 19:25:00,75.0,69.1,28.43,SW,225,6.0,7.0,82,0.00,,,0.00,meteohub,2013-09-20 00:25:00,
2013-09-19 19:30:00,75.0,69.1,28.43,SE,135,4.0,6.0,82,0.00,,,0.00,meteohub,2013-09-20 00:30:00,
2013-09-19 19:35:00,74.7,68.7,28.43,West,270,3.0,6.0,82,0.00,,,0.00,meteohub,2013-09-20 00:35:00,
2013-09-19 19:40:00,74.5,68.9,28.43,South,180,4.0,6.0,83,0.00,,,0.00,meteohub,2013-09-20 00:40:00,
2013-09-19 19:45:00,74.3,68.7,28.43,West,270,1.0,5.0,83,0.00,,,0.00,meteohub,2013-09-20 00:45:00,
2013-09-19 19:50:00,74.1,68.5,28.43,SW,225,0.0,5.0,83,0.00,,,0.00,meteohub,2013-09-20 00:50:00,
2013-09-19 19:55:00,74.1,68.5,28.43,SW,225,0.0,4.0,83,0.00,,,0.00,meteohub,2013-09-20 00:55:00,
2013-09-19 20:00:00,74.1,68.9,28.42,South,180,0.0,1.0,84,0.00,,,0.00,meteohub,2013-09-20 01:00:00,
2013-09-19 20:05:00,73.8,68.9,28.43,SW,225,0.0,0.0,85,0.00,,,0.00,meteohub,2013-09-20 01:05:00,
2013-09-19 20:10:00,73.9,69.1,28.43,South,180,0.0,2.0,85,0.00,,,0.00,meteohub,2013-09-20 01:10:00,
2013-09-19 20:16:00,73.8,68.9,28.42,South,180,0.0,2.0,85,0.00,,,0.00,meteohub,2013-09-20 01:16:00,
2013-09-19 20:21:00,73.8,69.3,28.42,SW,225,1.0,2.0,86,0.00,,,0.00,meteohub,2013-09-20 01:21:00,
2013-09-19 20:26:00,73.6,69.1,28.43,SW,225,2.0,2.0,86,0.00,,,0.00,meteohub,2013-09-20 01:26:00,
2013-09-19 20:31:00,73.8,69.3,28.43,SW,225,3.0,3.0,86,0.00,,,0.00,meteohub,2013-09-20 01:31:00,
2013-09-19 20:36:00,73.4,68.9,28.43,South,180,0.0,3.0,86,0.00,,,0.00,meteohub,2013-09-20 01:36:00,
2013-09-19 20:41:00,73.4,69.3,28.43,SE,135,0.0,3.0,87,0.00,,,0.00,meteohub,2013-09-20 01:41:00,
2013-09-19 20:46:00,73.2,69.1,28.43,South,180,0.0,3.0,87,0.00,,,0.00,meteohub,2013-09-20 01:46:00,
2013-09-19 20:51:00,73.0,68.9,28.43,South,180,0.0,2.0,87,0.00,,,0.00,meteohub,2013-09-20 01:51:00,
2013-09-19 20:56:00,73.0,68.9,28.43,SW,225,1.0,1.0,87,0.00,,,0.00,meteohub,2013-09-20 01:56:00,
2013-09-19 21:01:00,73.0,69.3,28.44,East,90,0.0,1.0,88,0.00,,,0.00,meteohub,2013-09-20 02:01:00,
2013-09-19 21:06:00,72.9,69.1,28.44,East,90,0.0,1.0,88,0.00,,,0.00,meteohub,2013-09-20 02:06:00,
2013-09-19 21:11:00,72.9,69.1,28.44,North,0,0.0,1.0,88,0.00,,,0.00,meteohub,2013-09-20 02:11:00,
2013-09-19 21:16:00,73.0,69.3,28.45,North,0,0.0,0.0,88,0.00,,,0.00,meteohub,2013-09-20 02:16:00,
2013-09-19 21:21:00,72.9,69.4,28.45,North,0,0.0,0.0,89,0.00,,,0.00,meteohub,2013-09-20 02:21:00,
2013-09-19 21:26:00,73.0,69.6,28.45,West,270,0.0,0.0,89,0.00,,,0.00,meteohub,2013-09-20 02:26:00,
2013-09-19 21:31:00,73.2,69.8,28.45,West,270,0.0,0.0,89,0.00,,,0.00,meteohub,2013-09-20 02:31:00,
2013-09-19 21:36:00,72.9,69.4,28.45,West,270,0.0,0.0,89,0.00,,,0.00,meteohub,2013-09-20 02:36:00,
2013-09-19 21:41:00,73.0,69.6,28.46,West,270,0.0,0.0,89,0.00,,,0.00,meteohub,2013-09-20 02:41:00,
2013-09-19 21:46:00,72.9,69.4,28.46,West,270,0.0,0.0,89,0.00,,,0.00,meteohub,2013-09-20 02:46:00,
2013-09-19 21:51:00,73.0,69.6,28.47,North,0,1.0,0.0,89,0.00,,,0.00,meteohub,2013-09-20 02:51:00,
2013-09-19 21:56:00,73.0,69.6,28.47,North,0,0.0,1.0,89,0.00,,,0.00,meteohub,2013-09-20 02:56:00,
2013-09-19 22:01:00,72.9,69.4,28.47,NW,315,1.0,1.0,89,0.00,,,0.00,meteohub,2013-09-20 03:01:00,
2013-09-19 22:06:00,72.7,69.6,28.47,NW,315,1.0,1.0,90,0.00,,,0.00,meteohub,2013-09-20 03:06:00,
2013-09-19 22:11:00,72.9,69.8,28.48,NW,315,1.0,1.0,90,0.00,,,0.00,meteohub,2013-09-20 03:11:00,
2013-09-19 22:16:00,73.0,70.0,28.47,North,0,0.0,1.0,90,0.00,,,0.00,meteohub,2013-09-20 03:16:00,
2013-09-19 22:21:00,72.9,69.8,28.48,NE,45,0.0,1.0,90,0.00,,,0.00,meteohub,2013-09-20 03:21:00,
2013-09-19 22:26:00,72.9,69.8,28.48,North,0,0.0,1.0,90,0.00,,,0.00,meteohub,2013-09-20 03:26:00,
2013-09-19 22:32:00,72.7,70.0,28.48,North,0,1.0,1.0,91,0.00,,,0.00,meteohub,2013-09-20 03:32:00,
2013-09-19 22:37:00,73.0,70.3,28.49,North,0,1.0,1.0,91,0.00,,,0.00,meteohub,2013-09-20 03:37:00,
2013-09-19 22:42:00,73.0,70.3,28.49,North,0,1.0,1.0,91,0.00,,,0.00,meteohub,2013-09-20 03:42:00,
2013-09-19 22:47:00,72.9,69.8,28.50,North,0,0.0,1.0,90,0.00,,,0.00,meteohub,2013-09-20 03:47:00,
2013-09-19 22:52:00,73.0,70.0,28.50,North,0,1.0,2.0,90,0.00,,,0.00,meteohub,2013-09-20 03:52:00,
2013-09-19 22:57:00,73.0,70.0,28.51,North,0,1.0,4.0,90,0.00,,,0.00,meteohub,2013-09-20 03:57:00,
2013-09-19 23:01:00,73.2,70.2,28.51,North,0,1.0,4.0,90,0.00,,,0.00,meteohub,2013-09-20 04:01:00,
2013-09-19 23:06:00,73.0,70.0,28.51,North,0,1.0,4.0,90,0.00,,,0.00,meteohub,2013-09-20 04:06:00,
2013-09-19 23:11:00,73.0,70.0,28.51,NNW,338,1.0,2.0,90,0.00,,,0.00,meteohub,2013-09-20 04:11:00,
2013-09-19 23:16:00,73.0,70.0,28.52,NE,45,3.0,3.0,90,0.00,,,0.00,meteohub,2013-09-20 04:16:00,
2013-09-19 23:22:00,73.0,69.6,28.52,NW,315,1.0,3.0,89,0.00,,,0.00,meteohub,2013-09-20 04:22:00,
2013-09-19 23:27:00,73.4,70.0,28.53,North,0,1.0,3.0,89,0.00,,,0.00,meteohub,2013-09-20 04:27:00,
2013-09-19 23:32:00,73.2,69.8,28.53,North,0,4.0,4.0,89,0.00,,,0.00,meteohub,2013-09-20 04:32:00,
2013-09-19 23:37:00,73.0,69.6,28.54,NW,315,3.0,5.0,89,0.00,,,0.00,meteohub,2013-09-20 04:37:00,
2013-09-19 23:42:00,73.2,70.2,28.54,NW,315,4.0,5.0,90,0.00,,,0.00,meteohub,2013-09-20 04:42:00,
2013-09-19 23:47:00,72.9,69.8,28.54,North,0,7.0,7.0,90,0.00,,,0.00,meteohub,2013-09-20 04:47:00,
2013-09-19 23:52:00,72.3,69.6,28.54,NE,45,7.0,11.0,91,0.00,,,0.00,meteohub,2013-09-20 04:52:00,
2013-09-19 23:57:00,71.8,69.3,28.54,North,0,3.0,11.0,92,0.00,,,0.00,meteohub,2013-09-20 04:57:00,